createdAt,value
2023-03-08T11:06:51.732Z,84.10
2023-03-08T11:34:24.524Z,82.29
2023-03-08T11:35:37.238Z,81.71
2023-03-08T11:37:07.648Z,81.93
2023-03-08T11:38:22.599Z,81.22
2023-03-08T11:47:43.856Z,80.93
2023-03-08T11:50:05.921Z,80.58
2023-03-08T11:51:13.322Z,80.69
2023-03-08T11:52:32.075Z,79.66
2023-03-08T11:53:45.693Z,79.72
2023-03-08T11:55:36.699Z,79.70
2023-03-08T11:56:47.681Z,79.79
2023-03-08T11:58:03.690Z,79.31
2023-03-08T11:59:09.611Z,79.37
2023-03-08T12:00:39.387Z,78.42
2023-03-08T12:01:52.721Z,77.71
2023-03-08T12:02:56.497Z,77.46
2023-03-08T12:04:04.506Z,77.49
2023-03-08T12:05:31.610Z,77.67
2023-03-08T12:06:38.480Z,77.04
2023-03-08T12:07:46.386Z,77.17
2023-03-08T12:08:54.530Z,77.29
2023-03-08T12:10:03.283Z,77.25
2023-03-08T12:11:12.101Z,76.74
2023-03-08T12:12:28.940Z,76.75
2023-03-08T12:13:44.145Z,76.85
2023-03-08T12:15:02.152Z,76.82
2023-03-08T12:16:24.020Z,76.65
2023-03-08T12:17:39.554Z,76.75
2023-03-08T12:18:46.966Z,77.05
2023-03-08T12:19:50.615Z,77.25
2023-03-08T12:21:15.655Z,76.68
2023-03-08T12:22:41.657Z,76.77
2023-03-08T12:23:43.032Z,76.36
2023-03-08T12:24:53.584Z,75.81
2023-03-08T12:26:22.139Z,75.42
2023-03-08T12:27:31.109Z,75.84
2023-03-08T12:28:41.494Z,75.68
2023-03-08T12:29:49.607Z,76.12
2023-03-08T12:31:27.308Z,76.37
2023-03-08T12:32:30.326Z,75.96
2023-03-08T12:33:32.373Z,75.55
2023-03-08T12:34:45.887Z,75.34
2023-03-08T12:35:51.900Z,75.34
2023-03-08T12:36:54.325Z,75.26
2023-03-08T12:38:07.620Z,75.17
2023-03-08T12:39:27.791Z,73.55
2023-03-08T12:40:39.931Z,73.29
2023-03-08T12:41:41.587Z,73.30
2023-03-08T12:42:43.037Z,72.93
2023-03-08T12:43:44.608Z,73.13
2023-03-08T12:44:46.023Z,73.40
2023-03-08T12:45:48.585Z,72.14
2023-03-08T12:47:03.362Z,71.52
2023-03-08T12:48:05.313Z,71.64
2023-03-08T12:49:20.188Z,71.24
2023-03-08T12:50:24.651Z,72.40
2023-03-08T12:51:33.969Z,73.39
2023-03-08T12:52:35.720Z,73.46
2023-03-08T12:53:52.554Z,73.56
2023-03-08T12:55:06.775Z,73.41
2023-03-08T12:56:11.520Z,73.31
2023-03-08T12:57:22.255Z,73.54
2023-03-08T12:58:23.726Z,73.71
2023-03-08T12:59:34.026Z,73.65
2023-03-08T13:00:37.494Z,73.78
2023-03-08T13:01:40.546Z,74.30
2023-03-08T13:02:42.083Z,74.74
2023-03-08T13:03:43.776Z,75.40
2023-03-08T13:04:45.948Z,75.37
2023-03-08T13:05:49.712Z,74.79
2023-03-08T13:07:06.398Z,74.31
2023-03-08T13:08:07.801Z,74.93
2023-03-08T13:09:21.537Z,74.86
2023-03-08T13:10:30.128Z,75.05
2023-03-08T13:11:41.191Z,75.08
2023-03-08T13:12:48.752Z,75.78
2023-03-08T13:13:57.348Z,76.06
2023-03-08T13:15:01.861Z,76.39
2023-03-08T13:16:27.956Z,76.44
2023-03-08T13:17:33.893Z,77.42
2023-03-08T13:18:36.758Z,77.60
2023-03-08T13:19:38.412Z,77.79
2023-03-08T13:20:41.641Z,78.33
2023-03-08T13:22:12.036Z,78.39
2023-03-08T13:23:13.472Z,78.64
2023-03-08T13:24:18.868Z,78.40
2023-03-08T13:25:35.275Z,78.56
2023-03-08T13:26:54.486Z,78.73
2023-03-08T13:28:05.618Z,79.21
2023-03-08T13:29:15.974Z,79.11
2023-03-08T13:30:24.823Z,79.31
2023-03-08T13:31:30.803Z,79.09
2023-03-08T13:32:32.740Z,79.28
2023-03-08T13:33:38.764Z,79.58
2023-03-08T13:34:41.738Z,79.55
2023-03-08T13:35:43.282Z,80.33
2023-03-08T13:36:48.329Z,80.11
2023-03-08T13:37:55.784Z,80.36
2023-03-08T13:39:06.244Z,81.49
2023-03-08T13:40:17.114Z,81.77
2023-03-08T13:41:18.531Z,82.41
2023-03-08T13:42:24.666Z,82.38
2023-03-08T13:43:29.461Z,83.68
2023-03-08T13:44:30.861Z,84.51
2023-03-08T13:45:32.480Z,85.29
2023-03-08T13:46:42.203Z,85.16
2023-03-08T13:47:45.910Z,84.58
2023-03-08T13:48:47.372Z,84.33
2023-03-08T13:49:51.810Z,84.78
2023-03-08T13:50:53.604Z,85.60
2023-03-08T13:51:59.499Z,85.70
2023-03-08T13:53:03.752Z,86.31
2023-03-08T13:54:05.439Z,86.35
2023-03-08T13:55:16.546Z,86.51
2023-03-08T13:56:26.926Z,86.77
2023-03-08T13:57:31.529Z,86.59
2023-03-08T13:58:47.489Z,86.65
2023-03-08T13:59:54.829Z,85.60
2023-03-08T14:01:05.156Z,84.61
2023-03-08T14:02:20.989Z,84.08
2023-03-08T14:03:30.498Z,83.13
2023-03-08T14:04:34.706Z,82.11
2023-03-08T14:05:43.792Z,83.06
2023-03-08T14:06:50.935Z,83.46
2023-03-08T14:08:03.099Z,83.53
2023-03-08T14:09:05.296Z,83.72
2023-03-08T14:10:13.671Z,83.33
2023-03-08T14:11:21.732Z,83.52
2023-03-08T14:12:28.429Z,83.59
2023-03-08T14:13:34.319Z,83.71
2023-03-08T14:14:40.541Z,83.99
2023-03-08T14:15:49.493Z,85.01
2023-03-08T14:16:53.845Z,85.85
2023-03-08T14:17:57.714Z,86.76
2023-03-08T14:19:08.458Z,86.72
2023-03-08T14:20:23.600Z,87.43
2023-03-08T14:21:29.980Z,87.34
2023-03-08T14:22:39.907Z,87.61
2023-03-08T14:23:46.698Z,88.52
2023-03-08T14:24:55.694Z,88.24
2023-03-08T14:25:58.527Z,88.75
2023-03-08T14:27:04.155Z,88.69
2023-03-08T14:28:05.495Z,88.24
2023-03-08T14:29:15.906Z,88.05
2023-03-08T14:30:20.008Z,88.29
2023-03-08T14:31:29.324Z,88.05
2023-03-08T14:32:32.447Z,88.77
2023-03-08T14:33:42.274Z,89.25
2023-03-08T14:34:46.381Z,90.14
2023-03-08T14:41:43.634Z,91.66
2023-03-08T14:42:47.125Z,92.34
2023-03-08T15:05:22.513Z,91.54
2023-03-08T15:06:32.814Z,90.48
2023-03-08T15:07:36.595Z,89.30
2023-03-08T15:08:38.075Z,88.30
2023-03-08T15:09:40.695Z,88.50
2023-03-08T15:10:43.104Z,87.96
2023-03-08T15:11:46.584Z,87.74
2023-03-08T15:12:47.983Z,87.02
2023-03-08T15:13:50.246Z,85.65
2023-03-08T15:14:51.942Z,85.68
2023-03-08T15:15:53.426Z,84.80
2023-03-08T15:16:55.277Z,84.11
2023-03-08T15:17:56.695Z,84.26
2023-03-08T15:18:58.132Z,82.96
2023-03-08T15:19:59.622Z,83.15
2023-03-08T15:21:01.329Z,84.09
2023-03-08T15:22:05.151Z,84.17
2023-03-08T15:23:08.894Z,84.73
2023-03-08T15:24:15.309Z,85.52
2023-03-08T15:25:22.315Z,85.87
2023-03-08T15:26:26.721Z,86.67
2023-03-08T15:27:30.184Z,87.31
